sensor_id;sensor_type;location;lat;lon;timestamp;temperature;humidity
2226;DHT22;1119;48.288;8.726;2023-04-24T00:00:41;11.30;99.90
2226;DHT22;1119;48.288;8.726;2023-04-24T00:03:31;11.30;99.90
2226;DHT22;1119;48.288;8.726;2023-04-24T00:06:19;11.30;99.90
2226;DHT22;1119;48.288;8.726;2023-04-24T00:09:06;11.30;99.90
2226;DHT22;1119;48.288;8.726;2023-04-24T00:11:57;11.30;99.90
2226;DHT22;1119;48.288;8.726;2023-04-24T00:14:45;11.30;99.90
2226;DHT22;1119;48.288;8.726;2023-04-24T00:17:32;11.30;99.90
2226;DHT22;1119;48.288;8.726;2023-04-24T00:20:20;11.20;99.90
2226;DHT22;1119;48.288;8.726;2023-04-24T00:23:08;11.10;99.90
2226;DHT22;1119;48.288;8.726;2023-04-24T00:25:56;11.00;99.90
2226;DHT22;1119;48.288;8.726;2023-04-24T00:28:45;11.00;99.90
2226;DHT22;1119;48.288;8.726;2023-04-24T00:31:32;10.90;99.90
2226;DHT22;1119;48.288;8.726;2023-04-24T00:34:21;10.70;99.90
2226;DHT22;1119;48.288;8.726;2023-04-24T00:37:09;10.70;99.90
2226;DHT22;1119;48.288;8.726;2023-04-24T00:39:57;10.70;99.90
2226;DHT22;1119;48.288;8.726;2023-04-24T00:42:45;10.70;99.90
2226;DHT22;1119;48.288;8.726;2023-04-24T00:45:34;10.70;99.90
2226;DHT22;1119;48.288;8.726;2023-04-24T00:48:23;10.70;99.90
2226;DHT22;1119;48.288;8.726;2023-04-24T00:51:11;10.70;99.90
2226;DHT22;1119;48.288;8.726;2023-04-24T00:53:59;10.70;99.90
2226;DHT22;1119;48.288;8.726;2023-04-24T00:56:48;10.70;99.90
2226;DHT22;1119;48.288;8.726;2023-04-24T00:59:37;10.70;99.90
2226;DHT22;1119;48.288;8.726;2023-04-24T01:02:28;10.70;99.90
2226;DHT22;1119;48.288;8.726;2023-04-24T01:05:16;10.70;99.90
2226;DHT22;1119;48.288;8.726;2023-04-24T01:08:05;10.60;99.90
2226;DHT22;1119;48.288;8.726;2023-04-24T01:10:53;10.60;99.90
2226;DHT22;1119;48.288;8.726;2023-04-24T01:13:41;10.60;99.90
2226;DHT22;1119;48.288;8.726;2023-04-24T01:16:30;10.70;99.90
2226;DHT22;1119;48.288;8.726;2023-04-24T01:19:19;10.70;99.90
2226;DHT22;1119;48.288;8.726;2023-04-24T01:22:13;10.60;99.90
2226;DHT22;1119;48.288;8.726;2023-04-24T01:25:01;10.70;99.90
2226;DHT22;1119;48.288;8.726;2023-04-24T01:27:50;10.70;99.90
2226;DHT22;1119;48.288;8.726;2023-04-24T01:30:38;10.70;99.90
2226;DHT22;1119;48.288;8.726;2023-04-24T01:33:26;10.70;99.90
2226;DHT22;1119;48.288;8.726;2023-04-24T01:36:14;10.70;99.90
2226;DHT22;1119;48.288;8.726;2023-04-24T01:39:03;10.60;99.90
2226;DHT22;1119;48.288;8.726;2023-04-24T01:41:52;10.50;99.90
2226;DHT22;1119;48.288;8.726;2023-04-24T01:44:40;10.40;99.90
2226;DHT22;1119;48.288;8.726;2023-04-24T01:47:28;10.50;99.90
2226;DHT22;1119;48.288;8.726;2023-04-24T01:50:17;10.40;99.90
2226;DHT22;1119;48.288;8.726;2023-04-24T01:53:05;10.40;99.90
2226;DHT22;1119;48.288;8.726;2023-04-24T01:55:54;10.30;99.90
2226;DHT22;1119;48.288;8.726;2023-04-24T01:58:45;10.30;99.90
2226;DHT22;1119;48.288;8.726;2023-04-24T02:01:35;10.30;99.90
2226;DHT22;1119;48.288;8.726;2023-04-24T02:04:24;10.30;99.90
2226;DHT22;1119;48.288;8.726;2023-04-24T02:07:11;10.30;99.90
2226;DHT22;1119;48.288;8.726;2023-04-24T02:10:00;10.20;99.90
2226;DHT22;1119;48.288;8.726;2023-04-24T02:16:02;10.30;99.90
2226;DHT22;1119;48.288;8.726;2023-04-24T02:18:50;10.20;99.90
2226;DHT22;1119;48.288;8.726;2023-04-24T02:21:38;10.20;99.90
2226;DHT22;1119;48.288;8.726;2023-04-24T02:24:28;10.10;99.90
2226;DHT22;1119;48.288;8.726;2023-04-24T02:27:16;9.90;99.90
2226;DHT22;1119;48.288;8.726;2023-04-24T02:32:54;9.80;99.90
2226;DHT22;1119;48.288;8.726;2023-04-24T02:35:42;9.70;99.90
2226;DHT22;1119;48.288;8.726;2023-04-24T02:38:30;9.60;99.90
2226;DHT22;1119;48.288;8.726;2023-04-24T02:41:17;9.60;99.90
2226;DHT22;1119;48.288;8.726;2023-04-24T02:44:05;9.60;99.90
2226;DHT22;1119;48.288;8.726;2023-04-24T02:46:53;9.60;99.90
2226;DHT22;1119;48.288;8.726;2023-04-24T02:49:42;9.50;99.90
2226;DHT22;1119;48.288;8.726;2023-04-24T02:52:30;9.50;99.90
2226;DHT22;1119;48.288;8.726;2023-04-24T02:55:18;9.50;99.90
2226;DHT22;1119;48.288;8.726;2023-04-24T02:58:06;9.40;99.90
2226;DHT22;1119;48.288;8.726;2023-04-24T03:00:54;9.40;99.90
2226;DHT22;1119;48.288;8.726;2023-04-24T03:03:42;9.40;99.90
2226;DHT22;1119;48.288;8.726;2023-04-24T03:06:31;9.50;99.90
2226;DHT22;1119;48.288;8.726;2023-04-24T03:09:21;9.50;99.90
2226;DHT22;1119;48.288;8.726;2023-04-24T03:12:09;9.50;99.90
2226;DHT22;1119;48.288;8.726;2023-04-24T03:14:57;9.50;99.90
2226;DHT22;1119;48.288;8.726;2023-04-24T03:17:44;9.50;99.90
2226;DHT22;1119;48.288;8.726;2023-04-24T03:20:32;9.50;99.90
2226;DHT22;1119;48.288;8.726;2023-04-24T03:23:21;9.50;99.90
2226;DHT22;1119;48.288;8.726;2023-04-24T03:26:09;9.60;99.90
2226;DHT22;1119;48.288;8.726;2023-04-24T03:29:02;9.60;99.90
2226;DHT22;1119;48.288;8.726;2023-04-24T03:31:49;9.60;99.90
2226;DHT22;1119;48.288;8.726;2023-04-24T03:34:37;9.60;99.90
2226;DHT22;1119;48.288;8.726;2023-04-24T03:37:26;9.60;99.90
2226;DHT22;1119;48.288;8.726;2023-04-24T03:40:27;9.50;99.90
2226;DHT22;1119;48.288;8.726;2023-04-24T03:43:16;9.40;99.90
2226;DHT22;1119;48.288;8.726;2023-04-24T03:46:04;9.40;99.90
2226;DHT22;1119;48.288;8.726;2023-04-24T03:48:57;9.30;99.90
2226;DHT22;1119;48.288;8.726;2023-04-24T03:51:49;9.30;99.90
2226;DHT22;1119;48.288;8.726;2023-04-24T03:54:42;9.30;99.90
2226;DHT22;1119;48.288;8.726;2023-04-24T03:57:32;9.30;99.90
2226;DHT22;1119;48.288;8.726;2023-04-24T04:00:31;9.20;99.90
2226;DHT22;1119;48.288;8.726;2023-04-24T04:03:39;9.20;99.90
2226;DHT22;1119;48.288;8.726;2023-04-24T04:06:27;9.20;99.90
2226;DHT22;1119;48.288;8.726;2023-04-24T04:09:16;9.20;99.90
2226;DHT22;1119;48.288;8.726;2023-04-24T04:12:05;9.30;99.90
2226;DHT22;1119;48.288;8.726;2023-04-24T04:14:55;9.10;99.90
2226;DHT22;1119;48.288;8.726;2023-04-24T04:17:43;9.10;99.90
2226;DHT22;1119;48.288;8.726;2023-04-24T04:20:31;9.20;99.90
2226;DHT22;1119;48.288;8.726;2023-04-24T04:23:19;9.20;99.90
2226;DHT22;1119;48.288;8.726;2023-04-24T04:26:24;9.20;99.90
2226;DHT22;1119;48.288;8.726;2023-04-24T04:29:32;9.20;99.90
2226;DHT22;1119;48.288;8.726;2023-04-24T04:32:23;9.30;99.90
2226;DHT22;1119;48.288;8.726;2023-04-24T04:35:10;9.20;99.90
2226;DHT22;1119;48.288;8.726;2023-04-24T04:37:58;9.00;99.90
2226;DHT22;1119;48.288;8.726;2023-04-24T04:41:02;9.00;99.90
2226;DHT22;1119;48.288;8.726;2023-04-24T04:43:52;8.90;99.90
2226;DHT22;1119;48.288;8.726;2023-04-24T04:46:40;8.60;99.90
2226;DHT22;1119;48.288;8.726;2023-04-24T04:49:40;8.60;99.90
2226;DHT22;1119;48.288;8.726;2023-04-24T04:52:36;8.40;99.90
2226;DHT22;1119;48.288;8.726;2023-04-24T04:55:34;8.40;99.90
2226;DHT22;1119;48.288;8.726;2023-04-24T04:58:28;8.40;99.90
2226;DHT22;1119;48.288;8.726;2023-04-24T05:01:19;8.30;99.90
2226;DHT22;1119;48.288;8.726;2023-04-24T05:04:09;8.30;99.90
2226;DHT22;1119;48.288;8.726;2023-04-24T05:06:58;8.20;99.90
2226;DHT22;1119;48.288;8.726;2023-04-24T05:09:49;8.20;99.90
2226;DHT22;1119;48.288;8.726;2023-04-24T05:12:37;8.20;99.90
2226;DHT22;1119;48.288;8.726;2023-04-24T05:15:26;8.20;99.90
2226;DHT22;1119;48.288;8.726;2023-04-24T05:18:14;8.20;99.90
2226;DHT22;1119;48.288;8.726;2023-04-24T05:21:03;8.20;99.90
2226;DHT22;1119;48.288;8.726;2023-04-24T05:23:52;8.20;99.90
2226;DHT22;1119;48.288;8.726;2023-04-24T05:27:00;8.30;99.90
2226;DHT22;1119;48.288;8.726;2023-04-24T05:29:54;8.40;99.90
2226;DHT22;1119;48.288;8.726;2023-04-24T05:32:41;8.50;99.90
2226;DHT22;1119;48.288;8.726;2023-04-24T05:35:29;8.50;99.90
2226;DHT22;1119;48.288;8.726;2023-04-24T05:38:17;8.50;99.90
2226;DHT22;1119;48.288;8.726;2023-04-24T05:41:07;8.60;99.90
2226;DHT22;1119;48.288;8.726;2023-04-24T05:43:55;8.60;99.90
2226;DHT22;1119;48.288;8.726;2023-04-24T05:46:43;8.70;99.90
2226;DHT22;1119;48.288;8.726;2023-04-24T05:49:31;8.70;99.90
2226;DHT22;1119;48.288;8.726;2023-04-24T05:52:19;8.80;99.90
2226;DHT22;1119;48.288;8.726;2023-04-24T05:55:09;8.80;99.90
2226;DHT22;1119;48.288;8.726;2023-04-24T05:58:00;8.90;99.90
2226;DHT22;1119;48.288;8.726;2023-04-24T06:00:48;9.00;99.90
2226;DHT22;1119;48.288;8.726;2023-04-24T06:03:38;9.10;99.90
2226;DHT22;1119;48.288;8.726;2023-04-24T06:06:26;9.30;99.90
2226;DHT22;1119;48.288;8.726;2023-04-24T06:09:15;10.30;99.90
2226;DHT22;1119;48.288;8.726;2023-04-24T06:12:04;11.50;99.90
2226;DHT22;1119;48.288;8.726;2023-04-24T06:15:09;12.90;99.90
2226;DHT22;1119;48.288;8.726;2023-04-24T06:18:10;13.80;99.20
2226;DHT22;1119;48.288;8.726;2023-04-24T06:20:59;13.40;98.60
2226;DHT22;1119;48.288;8.726;2023-04-24T06:23:47;13.10;99.90
2226;DHT22;1119;48.288;8.726;2023-04-24T06:26:35;13.50;97.40
2226;DHT22;1119;48.288;8.726;2023-04-24T06:29:23;13.80;96.40
2226;DHT22;1119;48.288;8.726;2023-04-24T06:32:12;13.10;96.80
2226;DHT22;1119;48.288;8.726;2023-04-24T06:35:00;13.40;98.10
2226;DHT22;1119;48.288;8.726;2023-04-24T06:37:48;13.70;95.60
2226;DHT22;1119;48.288;8.726;2023-04-24T06:40:35;12.90;95.70
2226;DHT22;1119;48.288;8.726;2023-04-24T06:43:23;12.40;96.90
2226;DHT22;1119;48.288;8.726;2023-04-24T06:46:10;12.10;98.10
2226;DHT22;1119;48.288;8.726;2023-04-24T06:49:00;12.00;99.00
2226;DHT22;1119;48.288;8.726;2023-04-24T06:51:47;12.70;98.10
2226;DHT22;1119;48.288;8.726;2023-04-24T06:54:35;13.00;97.80
2226;DHT22;1119;48.288;8.726;2023-04-24T06:57:23;13.10;97.20
2226;DHT22;1119;48.288;8.726;2023-04-24T07:00:12;12.70;97.30
2226;DHT22;1119;48.288;8.726;2023-04-24T07:03:00;12.60;97.90
2226;DHT22;1119;48.288;8.726;2023-04-24T07:05:49;12.50;99.00
2226;DHT22;1119;48.288;8.726;2023-04-24T07:08:40;12.50;99.40
2226;DHT22;1119;48.288;8.726;2023-04-24T07:14:18;11.30;97.90
2226;DHT22;1119;48.288;8.726;2023-04-24T07:17:06;10.60;99.90
2226;DHT22;1119;48.288;8.726;2023-04-24T07:19:54;10.10;99.90
2226;DHT22;1119;48.288;8.726;2023-04-24T07:22:43;9.60;99.90
2226;DHT22;1119;48.288;8.726;2023-04-24T07:25:31;9.30;99.90
2226;DHT22;1119;48.288;8.726;2023-04-24T07:28:18;9.10;99.90
2226;DHT22;1119;48.288;8.726;2023-04-24T07:31:06;9.00;99.90
2226;DHT22;1119;48.288;8.726;2023-04-24T07:33:55;8.90;99.90
2226;DHT22;1119;48.288;8.726;2023-04-24T07:36:44;8.70;99.90
2226;DHT22;1119;48.288;8.726;2023-04-24T07:39:32;9.10;99.90
2226;DHT22;1119;48.288;8.726;2023-04-24T07:42:20;9.70;99.90
2226;DHT22;1119;48.288;8.726;2023-04-24T07:45:08;10.20;99.90
2226;DHT22;1119;48.288;8.726;2023-04-24T07:47:56;10.80;99.90
2226;DHT22;1119;48.288;8.726;2023-04-24T07:50:43;11.40;99.90
2226;DHT22;1119;48.288;8.726;2023-04-24T07:53:33;11.90;99.90
2226;DHT22;1119;48.288;8.726;2023-04-24T07:56:22;11.80;99.80
2226;DHT22;1119;48.288;8.726;2023-04-24T07:59:10;11.60;99.90
2226;DHT22;1119;48.288;8.726;2023-04-24T08:01:57;11.40;99.90
2226;DHT22;1119;48.288;8.726;2023-04-24T08:04:47;11.10;99.90
2226;DHT22;1119;48.288;8.726;2023-04-24T08:07:35;10.70;99.90
2226;DHT22;1119;48.288;8.726;2023-04-24T08:10:23;10.40;99.90
2226;DHT22;1119;48.288;8.726;2023-04-24T08:13:12;10.10;99.90
2226;DHT22;1119;48.288;8.726;2023-04-24T08:16:00;9.90;99.90
2226;DHT22;1119;48.288;8.726;2023-04-24T08:18:48;9.80;99.90
2226;DHT22;1119;48.288;8.726;2023-04-24T08:21:36;9.80;99.90
2226;DHT22;1119;48.288;8.726;2023-04-24T08:24:23;9.90;99.90
2226;DHT22;1119;48.288;8.726;2023-04-24T08:27:11;10.20;99.90
2226;DHT22;1119;48.288;8.726;2023-04-24T08:30:00;10.50;99.90
2226;DHT22;1119;48.288;8.726;2023-04-24T08:32:48;10.70;99.90
2226;DHT22;1119;48.288;8.726;2023-04-24T08:35:35;10.90;99.90
2226;DHT22;1119;48.288;8.726;2023-04-24T08:38:24;10.90;99.90
2226;DHT22;1119;48.288;8.726;2023-04-24T08:41:11;10.70;99.90
2226;DHT22;1119;48.288;8.726;2023-04-24T08:44:02;10.60;99.90
2226;DHT22;1119;48.288;8.726;2023-04-24T08:46:51;10.20;99.90
2226;DHT22;1119;48.288;8.726;2023-04-24T08:49:39;9.90;99.90
2226;DHT22;1119;48.288;8.726;2023-04-24T08:52:28;9.80;99.90
2226;DHT22;1119;48.288;8.726;2023-04-24T08:55:17;9.60;99.90
2226;DHT22;1119;48.288;8.726;2023-04-24T08:58:06;9.50;99.90
2226;DHT22;1119;48.288;8.726;2023-04-24T09:00:54;9.50;99.90
2226;DHT22;1119;48.288;8.726;2023-04-24T09:03:47;9.60;99.90
2226;DHT22;1119;48.288;8.726;2023-04-24T09:06:36;10.10;99.90
2226;DHT22;1119;48.288;8.726;2023-04-24T09:09:25;10.60;99.90
2226;DHT22;1119;48.288;8.726;2023-04-24T09:12:13;11.10;99.90
2226;DHT22;1119;48.288;8.726;2023-04-24T09:15:02;11.50;99.60
2226;DHT22;1119;48.288;8.726;2023-04-24T09:17:50;11.20;98.70
2226;DHT22;1119;48.288;8.726;2023-04-24T09:21:01;11.00;99.00
2226;DHT22;1119;48.288;8.726;2023-04-24T09:23:58;10.90;99.90
2226;DHT22;1119;48.288;8.726;2023-04-24T09:26:57;10.70;99.50
2226;DHT22;1119;48.288;8.726;2023-04-24T09:29:54;10.60;99.90
2226;DHT22;1119;48.288;8.726;2023-04-24T09:32:42;10.60;99.90
2226;DHT22;1119;48.288;8.726;2023-04-24T09:35:32;10.60;99.90
2226;DHT22;1119;48.288;8.726;2023-04-24T09:38:30;10.60;99.90
2226;DHT22;1119;48.288;8.726;2023-04-24T09:41:20;10.50;99.00
2226;DHT22;1119;48.288;8.726;2023-04-24T09:44:12;10.40;99.90
2226;DHT22;1119;48.288;8.726;2023-04-24T09:47:01;10.60;99.90
2226;DHT22;1119;48.288;8.726;2023-04-24T09:49:48;10.60;99.90
2226;DHT22;1119;48.288;8.726;2023-04-24T09:52:39;10.80;99.90
2226;DHT22;1119;48.288;8.726;2023-04-24T09:55:30;10.90;99.00
2226;DHT22;1119;48.288;8.726;2023-04-24T09:58:18;10.50;98.40
2226;DHT22;1119;48.288;8.726;2023-04-24T10:01:06;10.30;98.30
2226;DHT22;1119;48.288;8.726;2023-04-24T10:03:54;10.20;97.50
2226;DHT22;1119;48.288;8.726;2023-04-24T10:06:42;9.90;97.40
2226;DHT22;1119;48.288;8.726;2023-04-24T10:09:30;9.90;97.60
2226;DHT22;1119;48.288;8.726;2023-04-24T10:12:21;10.10;98.10
2226;DHT22;1119;48.288;8.726;2023-04-24T10:15:10;10.60;97.90
2226;DHT22;1119;48.288;8.726;2023-04-24T10:18:00;11.00;95.60
2226;DHT22;1119;48.288;8.726;2023-04-24T10:20:48;11.30;94.60
2226;DHT22;1119;48.288;8.726;2023-04-24T10:23:39;11.70;94.20
2226;DHT22;1119;48.288;8.726;2023-04-24T10:26:34;11.90;93.10
2226;DHT22;1119;48.288;8.726;2023-04-24T10:29:26;11.80;90.50
2226;DHT22;1119;48.288;8.726;2023-04-24T10:32:15;11.70;90.10
2226;DHT22;1119;48.288;8.726;2023-04-24T10:35:03;11.80;90.50
2226;DHT22;1119;48.288;8.726;2023-04-24T10:37:57;11.80;89.50
2226;DHT22;1119;48.288;8.726;2023-04-24T10:40:48;12.10;90.30
2226;DHT22;1119;48.288;8.726;2023-04-24T10:43:36;12.20;89.60
2226;DHT22;1119;48.288;8.726;2023-04-24T10:46:28;12.20;90.80
2226;DHT22;1119;48.288;8.726;2023-04-24T10:49:27;12.40;86.40
2226;DHT22;1119;48.288;8.726;2023-04-24T10:52:16;11.90;86.90
2226;DHT22;1119;48.288;8.726;2023-04-24T10:55:05;11.60;86.90
2226;DHT22;1119;48.288;8.726;2023-04-24T10:58:02;11.50;87.90
2226;DHT22;1119;48.288;8.726;2023-04-24T11:00:56;11.20;87.90
2226;DHT22;1119;48.288;8.726;2023-04-24T11:03:54;11.10;87.00
2226;DHT22;1119;48.288;8.726;2023-04-24T11:06:43;10.90;89.00
2226;DHT22;1119;48.288;8.726;2023-04-24T11:09:32;11.10;89.60
2226;DHT22;1119;48.288;8.726;2023-04-24T11:12:27;11.50;89.60
2226;DHT22;1119;48.288;8.726;2023-04-24T11:15:16;11.80;88.00
2226;DHT22;1119;48.288;8.726;2023-04-24T11:18:06;12.10;85.30
2226;DHT22;1119;48.288;8.726;2023-04-24T11:20:55;12.10;84.70
2226;DHT22;1119;48.288;8.726;2023-04-24T11:23:44;12.20;86.20
2226;DHT22;1119;48.288;8.726;2023-04-24T11:26:37;12.20;84.60
2226;DHT22;1119;48.288;8.726;2023-04-24T11:29:41;12.10;81.60
2226;DHT22;1119;48.288;8.726;2023-04-24T11:32:34;11.90;82.40
2226;DHT22;1119;48.288;8.726;2023-04-24T11:35:23;11.80;81.80
2226;DHT22;1119;48.288;8.726;2023-04-24T11:38:13;11.70;82.70
2226;DHT22;1119;48.288;8.726;2023-04-24T11:41:02;11.70;83.90
2226;DHT22;1119;48.288;8.726;2023-04-24T11:43:51;11.60;83.60
2226;DHT22;1119;48.288;8.726;2023-04-24T11:46:40;11.50;83.60
2226;DHT22;1119;48.288;8.726;2023-04-24T11:49:27;11.20;82.80
2226;DHT22;1119;48.288;8.726;2023-04-24T11:52:15;11.00;81.60
2226;DHT22;1119;48.288;8.726;2023-04-24T11:55:07;10.70;81.80
2226;DHT22;1119;48.288;8.726;2023-04-24T11:57:56;10.60;82.70
2226;DHT22;1119;48.288;8.726;2023-04-24T12:00:45;10.50;84.70
2226;DHT22;1119;48.288;8.726;2023-04-24T12:03:32;10.50;84.40
2226;DHT22;1119;48.288;8.726;2023-04-24T12:06:20;10.60;86.70
2226;DHT22;1119;48.288;8.726;2023-04-24T12:09:08;10.50;86.50
2226;DHT22;1119;48.288;8.726;2023-04-24T12:11:59;10.60;86.90
2226;DHT22;1119;48.288;8.726;2023-04-24T12:14:48;10.50;86.60
2226;DHT22;1119;48.288;8.726;2023-04-24T12:17:36;10.50;87.80
2226;DHT22;1119;48.288;8.726;2023-04-24T12:20:30;10.50;88.90
2226;DHT22;1119;48.288;8.726;2023-04-24T12:23:34;10.30;84.80
2226;DHT22;1119;48.288;8.726;2023-04-24T12:26:22;10.40;85.00
2226;DHT22;1119;48.288;8.726;2023-04-24T12:29:19;10.40;86.30
2226;DHT22;1119;48.288;8.726;2023-04-24T12:32:15;10.60;87.00
2226;DHT22;1119;48.288;8.726;2023-04-24T12:35:04;10.70;87.00
2226;DHT22;1119;48.288;8.726;2023-04-24T12:37:53;11.00;83.50
2226;DHT22;1119;48.288;8.726;2023-04-24T12:40:42;11.10;82.40
2226;DHT22;1119;48.288;8.726;2023-04-24T12:43:30;11.10;84.60
2226;DHT22;1119;48.288;8.726;2023-04-24T12:46:19;11.30;84.50
2226;DHT22;1119;48.288;8.726;2023-04-24T12:49:07;11.40;82.10
2226;DHT22;1119;48.288;8.726;2023-04-24T12:51:55;11.40;84.40
2226;DHT22;1119;48.288;8.726;2023-04-24T12:54:42;11.40;81.20
2226;DHT22;1119;48.288;8.726;2023-04-24T12:57:30;11.40;81.00
2226;DHT22;1119;48.288;8.726;2023-04-24T13:00:18;11.40;80.80
2226;DHT22;1119;48.288;8.726;2023-04-24T13:03:07;11.40;80.00
2226;DHT22;1119;48.288;8.726;2023-04-24T13:05:55;11.50;78.70
2226;DHT22;1119;48.288;8.726;2023-04-24T13:08:43;11.40;76.70
2226;DHT22;1119;48.288;8.726;2023-04-24T13:11:31;11.20;78.70
2226;DHT22;1119;48.288;8.726;2023-04-24T13:14:18;11.50;78.10
2226;DHT22;1119;48.288;8.726;2023-04-24T13:17:06;11.70;78.30
2226;DHT22;1119;48.288;8.726;2023-04-24T13:19:56;11.80;76.60
2226;DHT22;1119;48.288;8.726;2023-04-24T13:22:44;11.80;75.30
2226;DHT22;1119;48.288;8.726;2023-04-24T13:25:35;11.80;76.10
2226;DHT22;1119;48.288;8.726;2023-04-24T13:28:25;11.90;76.00
2226;DHT22;1119;48.288;8.726;2023-04-24T13:31:12;11.90;77.20
2226;DHT22;1119;48.288;8.726;2023-04-24T13:34:01;12.00;75.60
2226;DHT22;1119;48.288;8.726;2023-04-24T13:36:53;12.10;74.90
2226;DHT22;1119;48.288;8.726;2023-04-24T13:39:41;12.30;75.80
2226;DHT22;1119;48.288;8.726;2023-04-24T13:42:29;12.20;72.20
2226;DHT22;1119;48.288;8.726;2023-04-24T13:45:16;12.10;73.40
2226;DHT22;1119;48.288;8.726;2023-04-24T13:48:04;12.20;75.10
2226;DHT22;1119;48.288;8.726;2023-04-24T13:50:52;12.30;71.60
2226;DHT22;1119;48.288;8.726;2023-04-24T13:53:41;12.10;69.80
2226;DHT22;1119;48.288;8.726;2023-04-24T13:56:28;12.20;68.90
2226;DHT22;1119;48.288;8.726;2023-04-24T13:59:16;12.40;71.50
2226;DHT22;1119;48.288;8.726;2023-04-24T14:02:04;12.80;69.20
2226;DHT22;1119;48.288;8.726;2023-04-24T14:04:51;13.00;66.10
2226;DHT22;1119;48.288;8.726;2023-04-24T14:07:39;13.20;68.70
2226;DHT22;1119;48.288;8.726;2023-04-24T14:10:28;13.20;67.50
2226;DHT22;1119;48.288;8.726;2023-04-24T14:13:16;13.20;68.40
2226;DHT22;1119;48.288;8.726;2023-04-24T14:16:06;13.00;67.40
2226;DHT22;1119;48.288;8.726;2023-04-24T14:18:54;12.80;70.10
2226;DHT22;1119;48.288;8.726;2023-04-24T14:21:42;12.80;69.50
2226;DHT22;1119;48.288;8.726;2023-04-24T14:24:29;12.70;70.00
2226;DHT22;1119;48.288;8.726;2023-04-24T14:27:18;12.80;69.60
2226;DHT22;1119;48.288;8.726;2023-04-24T14:30:07;12.60;69.50
2226;DHT22;1119;48.288;8.726;2023-04-24T14:32:55;12.60;70.90
2226;DHT22;1119;48.288;8.726;2023-04-24T14:35:43;12.60;70.20
2226;DHT22;1119;48.288;8.726;2023-04-24T14:38:31;12.60;69.40
2226;DHT22;1119;48.288;8.726;2023-04-24T14:41:18;12.70;70.90
2226;DHT22;1119;48.288;8.726;2023-04-24T14:44:07;12.80;68.80
2226;DHT22;1119;48.288;8.726;2023-04-24T14:46:55;13.00;70.30
2226;DHT22;1119;48.288;8.726;2023-04-24T14:49:43;13.10;68.30
2226;DHT22;1119;48.288;8.726;2023-04-24T14:52:30;13.10;68.40
2226;DHT22;1119;48.288;8.726;2023-04-24T14:55:19;13.10;71.20
2226;DHT22;1119;48.288;8.726;2023-04-24T14:58:06;13.20;70.20
2226;DHT22;1119;48.288;8.726;2023-04-24T15:00:55;13.20;72.10
2226;DHT22;1119;48.288;8.726;2023-04-24T15:03:43;13.20;70.10
2226;DHT22;1119;48.288;8.726;2023-04-24T15:06:30;13.20;68.20
2226;DHT22;1119;48.288;8.726;2023-04-24T15:09:18;13.00;69.30
2226;DHT22;1119;48.288;8.726;2023-04-24T15:12:06;12.90;69.50
2226;DHT22;1119;48.288;8.726;2023-04-24T15:14:54;12.80;70.10
2226;DHT22;1119;48.288;8.726;2023-04-24T15:17:43;12.90;70.60
2226;DHT22;1119;48.288;8.726;2023-04-24T15:20:31;13.00;69.80
2226;DHT22;1119;48.288;8.726;2023-04-24T15:23:18;13.00;70.10
2226;DHT22;1119;48.288;8.726;2023-04-24T15:26:06;12.90;67.90
2226;DHT22;1119;48.288;8.726;2023-04-24T15:28:54;12.70;67.50
2226;DHT22;1119;48.288;8.726;2023-04-24T15:31:41;12.80;67.80
2226;DHT22;1119;48.288;8.726;2023-04-24T15:34:30;12.80;68.90
2226;DHT22;1119;48.288;8.726;2023-04-24T15:37:18;12.80;69.00
2226;DHT22;1119;48.288;8.726;2023-04-24T15:40:07;12.80;67.90
2226;DHT22;1119;48.288;8.726;2023-04-24T15:42:57;12.70;67.00
2226;DHT22;1119;48.288;8.726;2023-04-24T15:45:45;12.60;66.70
2226;DHT22;1119;48.288;8.726;2023-04-24T15:48:32;12.50;68.00
2226;DHT22;1119;48.288;8.726;2023-04-24T15:51:22;12.50;68.40
2226;DHT22;1119;48.288;8.726;2023-04-24T15:54:10;12.50;68.60
2226;DHT22;1119;48.288;8.726;2023-04-24T15:56:58;12.60;69.00
2226;DHT22;1119;48.288;8.726;2023-04-24T15:59:46;12.70;69.30
2226;DHT22;1119;48.288;8.726;2023-04-24T16:02:34;12.70;70.10
2226;DHT22;1119;48.288;8.726;2023-04-24T16:05:22;12.80;70.40
2226;DHT22;1119;48.288;8.726;2023-04-24T16:08:11;12.70;69.80
2226;DHT22;1119;48.288;8.726;2023-04-24T16:10:59;12.50;70.20
2226;DHT22;1119;48.288;8.726;2023-04-24T16:13:46;12.50;71.80
2226;DHT22;1119;48.288;8.726;2023-04-24T16:16:34;12.50;72.70
2226;DHT22;1119;48.288;8.726;2023-04-24T16:19:22;12.30;73.60
2226;DHT22;1119;48.288;8.726;2023-04-24T16:22:09;12.00;75.80
2226;DHT22;1119;48.288;8.726;2023-04-24T16:24:58;11.70;77.40
2226;DHT22;1119;48.288;8.726;2023-04-24T16:27:46;11.70;78.00
2226;DHT22;1119;48.288;8.726;2023-04-24T16:30:34;11.60;78.70
2226;DHT22;1119;48.288;8.726;2023-04-24T16:33:22;11.60;79.10
2226;DHT22;1119;48.288;8.726;2023-04-24T16:36:11;11.60;80.30
2226;DHT22;1119;48.288;8.726;2023-04-24T16:39:00;11.50;80.90
2226;DHT22;1119;48.288;8.726;2023-04-24T16:41:51;11.40;82.60
2226;DHT22;1119;48.288;8.726;2023-04-24T16:44:40;11.50;82.50
2226;DHT22;1119;48.288;8.726;2023-04-24T16:47:28;11.50;82.10
2226;DHT22;1119;48.288;8.726;2023-04-24T16:50:16;11.40;82.40
2226;DHT22;1119;48.288;8.726;2023-04-24T16:53:03;11.40;83.10
2226;DHT22;1119;48.288;8.726;2023-04-24T16:55:51;11.30;84.10
2226;DHT22;1119;48.288;8.726;2023-04-24T16:58:40;11.30;84.90
2226;DHT22;1119;48.288;8.726;2023-04-24T17:01:28;11.20;85.70
2226;DHT22;1119;48.288;8.726;2023-04-24T17:04:16;11.20;84.50
2226;DHT22;1119;48.288;8.726;2023-04-24T17:07:03;11.10;84.30
2226;DHT22;1119;48.288;8.726;2023-04-24T17:09:51;11.00;83.90
2226;DHT22;1119;48.288;8.726;2023-04-24T17:12:39;11.10;85.70
2226;DHT22;1119;48.288;8.726;2023-04-24T17:15:28;11.10;83.70
2226;DHT22;1119;48.288;8.726;2023-04-24T17:18:15;11.10;84.00
2226;DHT22;1119;48.288;8.726;2023-04-24T17:21:03;11.10;84.20
2226;DHT22;1119;48.288;8.726;2023-04-24T17:23:51;11.10;84.80
2226;DHT22;1119;48.288;8.726;2023-04-24T17:26:39;11.20;85.40
2226;DHT22;1119;48.288;8.726;2023-04-24T17:29:36;11.10;85.90
2226;DHT22;1119;48.288;8.726;2023-04-24T17:32:25;11.10;86.50
2226;DHT22;1119;48.288;8.726;2023-04-24T17:35:12;11.10;86.30
2226;DHT22;1119;48.288;8.726;2023-04-24T17:38:00;11.00;85.90
2226;DHT22;1119;48.288;8.726;2023-04-24T17:40:47;11.00;86.30
2226;DHT22;1119;48.288;8.726;2023-04-24T17:43:37;10.90;85.80
2226;DHT22;1119;48.288;8.726;2023-04-24T17:46:25;10.90;86.10
2226;DHT22;1119;48.288;8.726;2023-04-24T17:49:14;10.90;86.50
2226;DHT22;1119;48.288;8.726;2023-04-24T17:52:01;10.80;86.60
2226;DHT22;1119;48.288;8.726;2023-04-24T17:54:49;10.80;87.10
2226;DHT22;1119;48.288;8.726;2023-04-24T17:57:37;10.80;87.50
2226;DHT22;1119;48.288;8.726;2023-04-24T18:00:24;10.80;88.10
2226;DHT22;1119;48.288;8.726;2023-04-24T18:03:12;10.90;89.10
2226;DHT22;1119;48.288;8.726;2023-04-24T18:06:01;10.90;88.60
2226;DHT22;1119;48.288;8.726;2023-04-24T18:08:48;10.90;89.00
2226;DHT22;1119;48.288;8.726;2023-04-24T18:11:36;10.80;88.50
2226;DHT22;1119;48.288;8.726;2023-04-24T18:14:23;10.80;88.90
2226;DHT22;1119;48.288;8.726;2023-04-24T18:17:13;10.80;89.10
2226;DHT22;1119;48.288;8.726;2023-04-24T18:20:00;10.80;89.30
2226;DHT22;1119;48.288;8.726;2023-04-24T18:22:50;10.70;89.10
2226;DHT22;1119;48.288;8.726;2023-04-24T18:25:38;10.70;89.60
2226;DHT22;1119;48.288;8.726;2023-04-24T18:28:25;10.70;90.30
2226;DHT22;1119;48.288;8.726;2023-04-24T18:31:16;10.70;91.00
2226;DHT22;1119;48.288;8.726;2023-04-24T18:34:04;10.70;91.70
2226;DHT22;1119;48.288;8.726;2023-04-24T18:36:51;10.80;91.80